createdAt,value
2023-05-07T00:02:02.604Z,9.03
2023-05-07T00:04:36.823Z,9.47
2023-05-07T00:07:05.031Z,10.33
2023-05-07T00:09:33.232Z,7.70
2023-05-07T00:12:01.409Z,9.73
2023-05-07T00:14:29.614Z,11.10
2023-05-07T00:16:59.286Z,10.03
2023-05-07T00:19:27.544Z,10.93
2023-05-07T00:21:56.908Z,7.37
2023-05-07T00:24:25.076Z,7.60
2023-05-07T00:26:53.772Z,8.60
2023-05-07T00:29:21.908Z,6.40
2023-05-07T00:31:52.071Z,8.00
2023-05-07T00:34:22.555Z,8.57
2023-05-07T00:36:50.808Z,7.63
2023-05-07T00:39:18.965Z,8.63
2023-05-07T00:41:47.144Z,6.37
2023-05-07T00:44:15.343Z,6.47
2023-05-07T00:46:43.589Z,8.60
2023-05-07T00:49:11.814Z,10.97
2023-05-07T00:51:41.369Z,7.70
2023-05-07T00:54:11.033Z,7.77
2023-05-07T00:56:40.190Z,13.13
2023-05-07T00:59:08.992Z,6.30
2023-05-07T01:01:37.891Z,10.70
2023-05-07T01:04:06.283Z,7.30
2023-05-07T01:06:35.229Z,6.20
2023-05-07T01:09:05.725Z,9.50
2023-05-07T01:11:34.137Z,7.90
2023-05-07T01:14:02.701Z,6.77
2023-05-07T01:16:30.928Z,9.10
2023-05-07T01:18:59.272Z,6.33
2023-05-07T01:21:28.726Z,6.93
2023-05-07T01:23:59.510Z,11.17
2023-05-07T01:26:27.985Z,6.90
2023-05-07T01:28:56.361Z,7.10
2023-05-07T01:31:26.752Z,8.17
2023-05-07T01:33:56.242Z,6.90
2023-05-07T01:36:27.255Z,6.50
2023-05-07T01:38:59.591Z,6.73
2023-05-07T01:41:27.914Z,5.87
2023-05-07T01:43:56.991Z,6.00
2023-05-07T01:46:25.659Z,7.70
2023-05-07T01:48:54.783Z,5.87
2023-05-07T01:51:23.614Z,9.77
2023-05-07T01:53:52.624Z,8.20
2023-05-07T01:56:23.684Z,7.43
2023-05-07T01:58:53.209Z,10.70
2023-05-07T02:01:21.444Z,5.83
2023-05-07T02:03:50.286Z,5.03
2023-05-07T02:06:18.505Z,7.23
2023-05-07T02:08:47.154Z,6.93
2023-05-07T02:11:15.344Z,6.43
2023-05-07T02:13:44.870Z,6.30
2023-05-07T02:16:15.295Z,4.63
2023-05-07T02:18:43.517Z,6.03
2023-05-07T02:21:11.661Z,7.77
2023-05-07T02:23:39.863Z,5.37
2023-05-07T02:26:08.223Z,5.30
2023-05-07T02:28:36.916Z,5.13
2023-05-07T02:31:06.926Z,6.00
2023-05-07T02:33:35.997Z,6.70
2023-05-07T02:36:11.522Z,6.63
2023-05-07T02:38:40.041Z,7.77
2023-05-07T02:41:08.211Z,6.47
2023-05-07T02:43:36.447Z,4.53
2023-05-07T02:46:07.453Z,6.73
2023-05-07T02:48:36.409Z,5.07
2023-05-07T02:51:06.408Z,4.87
2023-05-07T02:53:34.796Z,5.57
2023-05-07T02:56:03.725Z,4.97
2023-05-07T02:58:31.868Z,4.43
2023-05-07T03:01:00.090Z,3.53
2023-05-07T03:03:29.747Z,4.10
2023-05-07T03:05:57.897Z,3.73
2023-05-07T03:08:26.436Z,4.27
2023-05-07T03:10:54.821Z,4.03
2023-05-07T03:13:23.008Z,3.50
2023-05-07T03:15:51.248Z,3.67
2023-05-07T03:18:19.660Z,4.27
2023-05-07T03:20:51.060Z,4.20
2023-05-07T03:23:19.272Z,3.63
2023-05-07T03:25:47.458Z,3.67
2023-05-07T03:28:15.823Z,5.27
2023-05-07T03:30:44.004Z,4.97
2023-05-07T03:33:12.132Z,3.77
2023-05-07T03:35:40.279Z,4.90
2023-05-07T03:38:09.845Z,4.40
2023-05-07T03:40:38.030Z,6.67
2023-05-07T03:43:06.389Z,4.60
2023-05-07T03:45:34.558Z,3.53
2023-05-07T03:48:02.730Z,3.57
2023-05-07T03:50:30.920Z,3.60
2023-05-07T03:52:59.082Z,4.77
2023-05-07T03:55:28.621Z,4.23
2023-05-07T03:57:57.607Z,4.13
2023-05-07T04:00:25.823Z,4.40
2023-05-07T04:02:54.045Z,6.07
2023-05-07T04:05:22.263Z,3.30
2023-05-07T04:07:50.412Z,4.13
2023-05-07T04:10:18.832Z,6.03
2023-05-07T04:12:48.408Z,4.77
2023-05-07T04:15:16.812Z,3.60
2023-05-07T04:17:45.085Z,3.57
2023-05-07T04:20:16.542Z,4.67
2023-05-07T04:22:44.835Z,6.37
2023-05-07T04:25:13.032Z,4.23
2023-05-07T04:27:41.206Z,4.67
2023-05-07T04:30:12.784Z,4.13
2023-05-07T04:32:41.214Z,4.17
2023-05-07T04:35:09.799Z,5.77
2023-05-07T04:37:37.964Z,5.53
2023-05-07T04:40:06.998Z,4.20
2023-05-07T04:42:35.199Z,6.03
2023-05-07T04:45:04.324Z,3.17
2023-05-07T04:47:33.933Z,5.83
2023-05-07T04:50:02.111Z,3.67
2023-05-07T04:52:30.302Z,4.50
2023-05-07T04:54:58.407Z,3.27
2023-05-07T04:57:27.510Z,4.63
2023-05-07T04:59:55.951Z,4.47
2023-05-07T05:02:24.180Z,5.03
2023-05-07T05:04:53.753Z,5.40
2023-05-07T05:07:21.917Z,4.77
2023-05-07T05:09:50.041Z,4.93
2023-05-07T05:12:18.203Z,3.63
2023-05-07T05:14:46.340Z,6.27
2023-05-07T05:17:14.718Z,4.57
2023-05-07T05:19:42.885Z,4.43
2023-05-07T05:22:12.473Z,4.40
2023-05-07T05:24:40.754Z,5.93
2023-05-07T05:27:09.243Z,5.17
2023-05-07T05:29:37.468Z,5.97
2023-05-07T05:32:05.723Z,3.97
2023-05-07T05:34:34.648Z,4.50
2023-05-07T05:37:02.862Z,4.23
2023-05-07T05:39:32.421Z,6.77
2023-05-07T05:42:00.734Z,3.83
2023-05-07T05:44:28.911Z,3.97
2023-05-07T05:46:58.769Z,4.57
2023-05-07T05:49:26.993Z,3.97
2023-05-07T05:51:55.133Z,5.80
2023-05-07T05:54:23.287Z,3.37
2023-05-07T05:56:52.856Z,5.17
2023-05-07T05:59:21.221Z,4.63
2023-05-07T06:01:49.617Z,4.10
2023-05-07T06:04:18.190Z,5.17
2023-05-07T06:06:46.368Z,4.17
2023-05-07T06:09:14.565Z,5.93
2023-05-07T06:11:42.782Z,6.37
2023-05-07T06:14:12.313Z,5.13
2023-05-07T06:16:40.651Z,5.80
2023-05-07T06:19:08.839Z,5.30
2023-05-07T06:21:36.984Z,7.70
2023-05-07T06:24:05.244Z,5.40
2023-05-07T06:26:33.409Z,4.63
2023-05-07T06:29:01.576Z,3.53
2023-05-07T06:31:33.063Z,4.83
2023-05-07T06:34:03.165Z,4.37
2023-05-07T06:36:31.456Z,5.70
2023-05-07T06:38:59.640Z,7.70
2023-05-07T06:41:27.988Z,3.97
2023-05-07T06:43:56.164Z,3.63
2023-05-07T06:46:24.416Z,6.23
2023-05-07T06:48:54.430Z,3.77
2023-05-07T06:51:22.630Z,3.57
2023-05-07T06:53:50.829Z,4.05
2023-05-07T06:56:18.997Z,4.90
2023-05-07T06:58:47.142Z,3.83
2023-05-07T07:01:16.176Z,6.03
2023-05-07T07:03:44.360Z,4.27
2023-05-07T07:06:13.880Z,3.60
2023-05-07T07:08:42.061Z,3.67
2023-05-07T07:11:11.124Z,2.40
2023-05-07T07:13:39.357Z,3.40
2023-05-07T07:16:07.897Z,5.97
2023-05-07T07:18:36.908Z,2.72
2023-05-07T07:21:05.240Z,2.87
2023-05-07T07:23:35.072Z,3.20
2023-05-07T07:26:03.249Z,3.90
2023-05-07T07:28:31.455Z,3.47
2023-05-07T07:30:59.697Z,4.23
2023-05-07T07:33:27.974Z,3.03
2023-05-07T07:35:57.625Z,4.73
2023-05-07T07:38:25.765Z,2.37
2023-05-07T07:40:55.946Z,4.10
2023-05-07T07:43:24.145Z,2.77
2023-05-07T07:45:52.305Z,3.83
2023-05-07T07:48:20.454Z,4.00
2023-05-07T07:50:51.353Z,3.03
2023-05-07T07:53:19.626Z,4.38
2023-05-07T07:55:47.802Z,3.40
2023-05-07T07:58:17.352Z,4.10
2023-05-07T08:00:45.521Z,2.90
2023-05-07T08:03:14.015Z,4.03
2023-05-07T08:05:42.326Z,4.57
2023-05-07T08:08:10.822Z,2.70
2023-05-07T08:10:40.262Z,3.90
2023-05-07T08:13:08.832Z,3.07
2023-05-07T08:15:38.490Z,3.72
2023-05-07T08:18:06.825Z,5.27
2023-05-07T08:20:40.284Z,2.63
2023-05-07T08:23:08.594Z,3.55
2023-05-07T08:25:37.086Z,3.40
2023-05-07T08:28:06.311Z,2.33
2023-05-07T08:30:35.307Z,3.35
2023-05-07T08:33:05.028Z,3.70
2023-05-07T08:35:33.318Z,2.83
2023-05-07T08:38:01.531Z,2.97
2023-05-07T08:40:30.719Z,6.22
2023-05-07T08:43:00.237Z,2.80
2023-05-07T08:45:29.971Z,3.35
2023-05-07T08:48:01.810Z,3.08
2023-05-07T08:50:31.655Z,2.05
2023-05-07T08:53:01.062Z,3.08
2023-05-07T08:55:31.248Z,3.28
2023-05-07T08:57:59.415Z,3.13
2023-05-07T09:00:27.855Z,5.88
2023-05-07T09:02:56.148Z,3.15
2023-05-07T09:05:24.378Z,3.65
2023-05-07T09:07:54.714Z,5.10
2023-05-07T09:10:23.653Z,2.13
2023-05-07T09:12:52.780Z,3.25
2023-05-07T09:15:21.066Z,2.40
2023-05-07T09:17:49.285Z,2.00
2023-05-07T09:20:18.884Z,3.97
2023-05-07T09:22:47.126Z,2.15
2023-05-07T09:25:16.689Z,5.22
2023-05-07T09:27:44.951Z,3.28
2023-05-07T09:30:14.015Z,5.65
2023-05-07T09:32:42.316Z,4.50
2023-05-07T09:35:17.475Z,8.82
2023-05-07T09:37:45.817Z,5.85
2023-05-07T09:40:24.550Z,3.88
2023-05-07T09:42:53.116Z,2.40
2023-05-07T09:45:25.497Z,3.03
2023-05-07T09:47:57.286Z,10.45
2023-05-07T09:50:29.857Z,2.65
2023-05-07T09:52:59.304Z,6.07
2023-05-07T09:55:29.209Z,6.05
2023-05-07T09:57:57.648Z,2.70
2023-05-07T10:00:27.804Z,3.03
2023-05-07T10:02:59.842Z,4.63
2023-05-07T10:05:28.376Z,4.38
2023-05-07T10:07:58.280Z,3.05
2023-05-07T10:10:28.346Z,4.15
2023-05-07T10:12:57.302Z,5.30
2023-05-07T10:15:26.413Z,3.47
2023-05-07T10:17:56.385Z,2.95
2023-05-07T10:20:25.217Z,3.92
2023-05-07T10:22:54.651Z,4.32
2023-05-07T10:25:30.861Z,3.08
2023-05-07T10:28:04.560Z,3.33
2023-05-07T10:30:40.639Z,5.68
2023-05-07T10:33:12.768Z,3.10
2023-05-07T10:35:43.649Z,5.30
2023-05-07T10:38:11.972Z,3.20
2023-05-07T10:40:40.262Z,3.75
2023-05-07T10:43:10.823Z,3.30
2023-05-07T10:45:39.365Z,5.18
2023-05-07T10:48:28.051Z,3.50
2023-05-07T10:51:22.546Z,2.83
2023-05-07T10:53:50.850Z,4.43
2023-05-07T10:56:29.908Z,2.72
2023-05-07T10:59:35.086Z,2.10
2023-05-07T11:02:05.358Z,6.03
2023-05-07T11:04:36.025Z,1.92
2023-05-07T11:07:27.097Z,3.00
2023-05-07T11:10:16.425Z,2.58
2023-05-07T11:12:57.130Z,12.80
2023-05-07T11:15:46.515Z,6.03
2023-05-07T11:18:15.927Z,2.45
2023-05-07T11:20:55.139Z,4.30
2023-05-07T11:23:58.476Z,2.80
2023-05-07T11:26:27.436Z,3.03
2023-05-07T11:28:56.123Z,8.00
2023-05-07T11:31:29.241Z,5.53
2023-05-07T11:33:57.817Z,2.47
2023-05-07T11:36:27.170Z,6.05
2023-05-07T11:38:55.406Z,2.70
2023-05-07T11:41:23.776Z,2.00
2023-05-07T11:43:59.354Z,2.72
2023-05-07T11:46:29.726Z,3.70
2023-05-07T11:48:58.826Z,4.30
2023-05-07T11:51:28.139Z,5.18
2023-05-07T11:53:56.401Z,3.97
2023-05-07T11:56:25.055Z,2.92
2023-05-07T11:58:53.279Z,3.03
2023-05-07T12:01:21.459Z,2.75
2023-05-07T12:03:51.215Z,2.95
2023-05-07T12:06:20.159Z,1.73
2023-05-07T12:08:48.777Z,2.40
2023-05-07T12:11:23.691Z,2.63
2023-05-07T12:13:51.936Z,2.88
2023-05-07T12:16:21.268Z,3.38
2023-05-07T12:18:51.172Z,3.30
2023-05-07T12:21:19.725Z,4.43
2023-05-07T12:23:47.995Z,2.15
2023-05-07T12:26:16.195Z,2.45
2023-05-07T12:28:44.400Z,3.42
2023-05-07T12:31:12.670Z,2.22
2023-05-07T12:33:41.937Z,3.92
2023-05-07T12:36:14.735Z,2.85
2023-05-07T12:38:43.194Z,4.03
2023-05-07T12:41:13.914Z,4.97
2023-05-07T12:43:42.133Z,4.32
2023-05-07T12:46:10.558Z,4.03
2023-05-07T12:48:39.907Z,3.13
2023-05-07T12:51:11.220Z,4.28
2023-05-07T12:53:44.475Z,3.55
2023-05-07T12:56:12.703Z,4.32
2023-05-07T12:58:40.855Z,3.55
2023-05-07T13:01:10.970Z,4.38
2023-05-07T13:03:40.549Z,3.45
2023-05-07T13:06:13.174Z,2.72
2023-05-07T13:08:44.783Z,2.30
2023-05-07T13:11:14.074Z,4.43
2023-05-07T13:13:43.489Z,2.00
2023-05-07T13:16:13.542Z,2.42
2023-05-07T13:18:44.807Z,4.88
2023-05-07T13:21:14.231Z,1.50
2023-05-07T13:23:43.905Z,4.97
2023-05-07T13:26:25.842Z,3.70
2023-05-07T13:28:54.953Z,4.03
2023-05-07T13:31:23.208Z,3.13
2023-05-07T13:33:51.614Z,6.05
2023-05-07T13:36:19.888Z,4.30
2023-05-07T13:38:49.536Z,3.00
2023-05-07T13:41:17.843Z,2.50
2023-05-07T13:43:46.033Z,3.83
2023-05-07T13:46:14.402Z,6.68
2023-05-07T13:48:42.898Z,5.15
2023-05-07T13:51:11.386Z,1.73
2023-05-07T13:53:39.646Z,2.72
2023-05-07T13:56:09.271Z,2.30
2023-05-07T13:58:42.161Z,2.97
2023-05-07T14:01:13.513Z,5.30
2023-05-07T14:03:42.506Z,6.53
2023-05-07T14:06:10.805Z,3.20
2023-05-07T14:08:38.953Z,3.00
2023-05-07T14:11:08.627Z,1.95
2023-05-07T14:13:36.892Z,1.90
2023-05-07T14:16:07.029Z,2.10
2023-05-07T14:18:37.998Z,3.25
2023-05-07T14:21:08.614Z,2.03
2023-05-07T14:23:37.055Z,4.20
2023-05-07T14:26:05.385Z,2.50
2023-05-07T14:28:34.916Z,3.33
2023-05-07T14:31:03.224Z,4.78
2023-05-07T14:33:31.396Z,1.95
2023-05-07T14:35:59.526Z,3.92
2023-05-07T14:38:27.746Z,4.70
2023-05-07T14:40:57.213Z,3.03
2023-05-07T14:43:25.479Z,3.55
2023-05-07T14:45:55.182Z,2.33
2023-05-07T14:48:23.377Z,4.68
2023-05-07T14:50:51.938Z,3.03
2023-05-07T14:53:20.404Z,2.42
2023-05-07T14:55:49.791Z,1.98
2023-05-07T14:58:18.117Z,2.55
2023-05-07T15:00:46.337Z,3.13
2023-05-07T15:03:16.793Z,5.65
2023-05-07T15:05:45.127Z,3.03
2023-05-07T15:08:13.272Z,3.92
2023-05-07T15:10:42.564Z,2.05
2023-05-07T15:13:14.740Z,1.60
2023-05-07T15:15:45.677Z,2.70
2023-05-07T15:18:15.561Z,4.40
2023-05-07T15:20:44.153Z,3.08
2023-05-07T15:23:13.087Z,3.22
2023-05-07T15:25:41.770Z,6.28
2023-05-07T15:28:10.054Z,4.20
2023-05-07T15:30:38.250Z,4.68
2023-05-07T15:33:06.652Z,1.67
2023-05-07T15:35:36.698Z,3.28
2023-05-07T15:38:05.019Z,2.88
2023-05-07T15:40:33.888Z,2.70
2023-05-07T15:43:02.108Z,3.80
2023-05-07T15:45:31.316Z,3.83
2023-05-07T15:47:59.648Z,2.47
2023-05-07T15:50:29.615Z,3.75
2023-05-07T15:52:59.443Z,1.90
2023-05-07T15:55:31.264Z,3.83
2023-05-07T15:57:59.470Z,4.32
2023-05-07T16:00:28.511Z,2.03
2023-05-07T16:03:12.706Z,2.88
2023-05-07T16:05:40.993Z,6.22
2023-05-07T16:08:10.525Z,4.22
2023-05-07T16:10:38.677Z,2.22
2023-05-07T16:13:06.933Z,2.40
2023-05-07T16:15:35.103Z,3.58
2023-05-07T16:18:03.350Z,4.05
2023-05-07T16:20:32.101Z,4.03
2023-05-07T16:23:00.560Z,5.32
2023-05-07T16:25:30.136Z,2.67
2023-05-07T16:27:58.361Z,1.92
2023-05-07T16:30:26.603Z,3.45
2023-05-07T16:32:54.803Z,2.70
2023-05-07T16:35:23.160Z,3.88
2023-05-07T16:37:51.349Z,2.55
2023-05-07T16:40:19.723Z,2.30
2023-05-07T16:42:49.285Z,4.82
2023-05-07T16:45:18.767Z,3.65
2023-05-07T16:47:46.985Z,2.50
2023-05-07T16:50:15.316Z,3.75
2023-05-07T16:52:43.457Z,3.75
2023-05-07T16:55:11.978Z,3.35
2023-05-07T16:57:40.317Z,5.35
2023-05-07T17:00:11.756Z,2.42
2023-05-07T17:02:39.975Z,2.72
2023-05-07T17:05:09.171Z,3.92
2023-05-07T17:07:37.517Z,2.95
2023-05-07T17:10:06.597Z,4.10
2023-05-07T17:12:36.063Z,3.70
2023-05-07T17:15:04.532Z,3.08
2023-05-07T17:17:34.087Z,2.28
2023-05-07T17:20:03.148Z,4.40
2023-05-07T17:22:31.473Z,3.78
2023-05-07T17:25:01.228Z,2.13
2023-05-07T17:27:29.736Z,4.53
2023-05-07T17:29:57.940Z,4.65
2023-05-07T17:32:26.444Z,2.45
2023-05-07T17:34:56.482Z,4.15
2023-05-07T17:37:24.634Z,2.67
2023-05-07T17:39:53.475Z,4.93
2023-05-07T17:42:21.635Z,4.30
2023-05-07T17:44:49.805Z,7.30
2023-05-07T17:47:17.950Z,5.20
2023-05-07T17:49:46.123Z,4.03
2023-05-07T17:52:15.692Z,5.68
2023-05-07T17:54:43.889Z,5.00
2023-05-07T17:57:12.026Z,4.40
2023-05-07T17:59:40.475Z,5.53
2023-05-07T18:02:08.760Z,7.05
2023-05-07T18:04:37.042Z,4.35
2023-05-07T18:07:05.249Z,8.02
2023-05-07T18:09:35.212Z,6.22
2023-05-07T18:12:03.434Z,5.57
2023-05-07T18:14:31.656Z,7.82
2023-05-07T18:16:59.800Z,6.50
2023-05-07T18:19:28.392Z,6.88
2023-05-07T18:21:57.833Z,10.32
2023-05-07T18:24:27.188Z,7.13
2023-05-07T18:26:56.823Z,6.70
2023-05-07T18:29:25.223Z,8.73
2023-05-07T18:31:53.456Z,8.90
2023-05-07T18:34:21.669Z,4.40
2023-05-07T18:36:49.843Z,4.88
2023-05-07T18:39:18.092Z,6.35
2023-05-07T18:41:48.800Z,5.05
2023-05-07T18:44:18.394Z,4.05
2023-05-07T18:46:47.868Z,5.60
2023-05-07T18:49:16.032Z,5.97
2023-05-07T18:51:44.988Z,6.55
2023-05-07T18:54:13.288Z,6.28
2023-05-07T18:56:42.606Z,8.65
2023-05-07T18:59:11.990Z,9.13
2023-05-07T19:01:41.532Z,5.07
2023-05-07T19:04:09.911Z,8.65
2023-05-07T19:06:38.094Z,7.07
2023-05-07T19:09:06.273Z,8.75
2023-05-07T19:11:34.504Z,9.07
2023-05-07T19:14:04.588Z,9.98
2023-05-07T19:16:33.138Z,15.60
2023-05-07T19:19:02.949Z,11.25
2023-05-07T19:21:31.681Z,13.02
2023-05-07T19:23:59.822Z,8.88
2023-05-07T19:26:28.097Z,8.65
2023-05-07T19:29:12.265Z,11.07
2023-05-07T19:31:45.308Z,9.13
2023-05-07T19:34:14.977Z,7.55
2023-05-07T19:36:43.432Z,8.32
2023-05-07T19:39:11.768Z,14.13
2023-05-07T19:41:41.859Z,7.43
2023-05-07T19:44:10.272Z,9.55
2023-05-07T19:46:40.379Z,7.78
2023-05-07T19:49:11.177Z,9.00
2023-05-07T19:51:42.253Z,7.75
2023-05-07T19:54:10.779Z,8.07
2023-05-07T19:56:39.958Z,8.40
2023-05-07T19:59:08.197Z,12.57
2023-05-07T20:01:36.476Z,11.70
2023-05-07T20:04:04.945Z,15.65
2023-05-07T20:06:33.363Z,12.45
2023-05-07T20:09:03.625Z,12.30
2023-05-07T20:11:32.019Z,15.67
2023-05-07T20:14:00.201Z,14.63
2023-05-07T20:16:28.423Z,10.00
2023-05-07T20:18:56.613Z,9.33
2023-05-07T20:21:24.817Z,9.27
2023-05-07T20:23:53.243Z,10.87
2023-05-07T20:26:22.917Z,11.33
2023-05-07T20:28:51.256Z,11.73
2023-05-07T20:31:20.548Z,13.07
2023-05-07T20:33:48.771Z,13.60
2023-05-07T20:36:16.955Z,21.13
2023-05-07T20:38:45.294Z,17.17
2023-05-07T20:41:14.347Z,18.50
2023-05-07T20:43:43.908Z,15.37
2023-05-07T20:46:12.190Z,11.57
2023-05-07T20:48:40.384Z,12.77
2023-05-07T20:51:10.621Z,16.23
2023-05-07T20:53:40.610Z,13.87
2023-05-07T20:56:08.836Z,12.07
2023-05-07T20:58:36.997Z,13.57
2023-05-07T21:01:07.107Z,13.03
2023-05-07T21:03:35.369Z,13.63
2023-05-07T21:06:04.217Z,9.63
2023-05-07T21:08:32.695Z,16.07
2023-05-07T21:11:00.905Z,14.13
2023-05-07T21:13:29.081Z,14.67
2023-05-07T21:15:57.244Z,18.03
2023-05-07T21:18:28.981Z,16.47
2023-05-07T21:20:57.172Z,16.53
2023-05-07T21:23:25.383Z,19.53
2023-05-07T21:25:53.521Z,16.07
2023-05-07T21:28:21.667Z,16.67
2023-05-07T21:30:49.784Z,17.87
2023-05-07T21:33:17.999Z,14.60
2023-05-07T21:35:47.649Z,16.40
2023-05-07T21:38:15.808Z,18.00
2023-05-07T21:40:43.997Z,20.60
2023-05-07T21:43:12.125Z,20.20
2023-05-07T21:45:44.757Z,17.60
2023-05-07T21:48:15.225Z,16.40
2023-05-07T21:50:43.389Z,20.43
2023-05-07T21:53:12.940Z,18.83
2023-05-07T21:55:41.169Z,15.67
2023-05-07T21:58:09.323Z,17.13
2023-05-07T22:00:37.540Z,15.37
2023-05-07T22:03:05.913Z,15.53
2023-05-07T22:05:34.116Z,18.87
2023-05-07T22:08:02.293Z,17.70
2023-05-07T22:10:32.104Z,16.50
2023-05-07T22:13:00.299Z,18.53
2023-05-07T22:15:28.545Z,16.97
2023-05-07T22:17:56.857Z,16.70
2023-05-07T22:20:25.004Z,17.97
2023-05-07T22:22:55.140Z,20.93
2023-05-07T22:25:24.243Z,19.00
2023-05-07T22:27:54.272Z,16.07
2023-05-07T22:30:22.462Z,16.37
2023-05-07T22:32:50.663Z,17.17
2023-05-07T22:35:18.861Z,16.63
2023-05-07T22:37:47.064Z,16.17
2023-05-07T22:40:15.533Z,17.87
2023-05-07T22:42:44.207Z,15.43
2023-05-07T22:45:14.032Z,16.87
2023-05-07T22:47:42.312Z,15.20
2023-05-07T22:50:11.171Z,18.60
2023-05-07T22:52:39.465Z,14.73
2023-05-07T22:55:08.791Z,15.47
2023-05-07T22:57:36.940Z,15.50
2023-05-07T23:00:05.839Z,19.03
2023-05-07T23:02:35.501Z,16.93
2023-05-07T23:05:03.923Z,21.33
2023-05-07T23:07:32.123Z,17.50
2023-05-07T23:10:00.276Z,20.10
2023-05-07T23:12:28.456Z,19.93
2023-05-07T23:14:56.622Z,27.20
2023-05-07T23:17:24.985Z,19.43
2023-05-07T23:19:54.575Z,19.03
2023-05-07T23:22:22.744Z,18.03
2023-05-07T23:24:50.934Z,22.30
2023-05-07T23:27:19.073Z,19.67
2023-05-07T23:29:47.747Z,21.43
2023-05-07T23:32:16.100Z,23.60
2023-05-07T23:34:44.271Z,28.03
2023-05-07T23:37:13.792Z,23.87
2023-05-07T23:39:41.972Z,22.00
2023-05-07T23:42:10.244Z,26.80
2023-05-07T23:44:38.432Z,22.87
2023-05-07T23:47:06.794Z,26.67
2023-05-07T23:49:35.077Z,23.83
2023-05-07T23:52:03.214Z,33.00
2023-05-07T23:54:32.762Z,24.87
2023-05-07T23:57:01.041Z,25.87
2023-05-07T23:59:29.652Z,22.63
